Time;durP1;ratioP1;P1;durP2;ratioP2;P2;SDS_P1;SDS_P2;PMS_P1;PMS_P2;Temp;Humidity;BMP_temperature;BMP_pressure;BME280_temperature;BME280_humidity;BME280_pressure;Samples;Min_cycle;Max_cycle;Signal;HPM_P1;HPM_P2
2024/04/06 00:02:15;;;;;;;8.17;4.60;;;17.90;99.90;;;;;;4932789;29;20216;-69
2024/04/06 00:04:43;;;;;;;6.70;5.00;;;17.90;99.90;;;;;;4923813;28;20188;-69
2024/04/06 00:07:09;;;;;;;8.20;4.30;;;17.90;99.90;;;;;;4924244;29;20220;-68
2024/04/06 00:09:35;;;;;;;7.50;4.90;;;17.80;99.90;;;;;;4926130;29;20467;-69
2024/04/06 00:12:01;;;;;;;5.10;4.20;;;17.80;99.90;;;;;;4923369;29;20223;-70
2024/04/06 00:14:26;;;;;;;6.60;4.50;;;17.70;99.90;;;;;;4927294;29;20424;-69
2024/04/06 00:16:52;;;;;;;10.20;5.47;;;17.70;99.90;;;;;;4924182;29;20589;-69
2024/04/06 00:19:17;;;;;;;7.73;4.70;;;17.70;99.90;;;;;;4927223;29;20184;-70
2024/04/06 00:21:43;;;;;;;6.13;4.77;;;17.60;99.90;;;;;;4924072;29;20303;-70
2024/04/06 00:24:08;;;;;;;9.40;5.07;;;17.60;99.90;;;;;;4926302;29;20188;-70
2024/04/06 00:26:34;;;;;;;6.97;4.10;;;17.60;99.90;;;;;;4926175;29;20183;-70
2024/04/06 00:29:00;;;;;;;10.70;4.60;;;17.50;99.90;;;;;;4925439;29;20242;-70
2024/04/06 00:31:25;;;;;;;7.40;4.90;;;17.50;99.90;;;;;;4926085;29;20327;-70
2024/04/06 00:33:51;;;;;;;6.97;4.93;;;17.40;99.90;;;;;;4918671;29;20944;-70
2024/04/06 00:36:16;;;;;;;7.03;5.30;;;17.40;99.90;;;;;;4922082;29;20653;-70
2024/04/06 00:38:42;;;;;;;6.10;4.80;;;17.40;99.90;;;;;;4926474;29;20279;-70
2024/04/06 00:41:08;;;;;;;8.77;4.70;;;17.40;99.90;;;;;;4927745;29;20208;-70
2024/04/06 00:43:34;;;;;;;7.13;5.40;;;17.40;99.90;;;;;;4927315;29;20220;-70
2024/04/06 00:45:59;;;;;;;7.53;5.93;;;17.30;99.90;;;;;;4925473;29;20837;-70
2024/04/06 00:48:25;;;;;;;5.97;4.87;;;17.30;99.90;;;;;;4926378;29;20514;-68
2024/04/06 00:51:00;;;;;;;8.43;5.00;;;17.30;99.90;;;;;;4923539;29;20212;-69
2024/04/06 00:53:26;;;;;;;6.40;5.37;;;17.20;99.90;;;;;;4924344;29;20966;-68
2024/04/06 00:55:51;;;;;;;6.70;5.83;;;17.20;99.90;;;;;;4924745;29;20439;-68
2024/04/06 00:58:19;;;;;;;9.07;5.30;;;17.20;99.90;;;;;;4926521;29;20270;-69
2024/04/06 01:00:45;;;;;;;6.03;4.27;;;17.10;99.90;;;;;;4924511;29;20230;-69
2024/04/06 01:03:10;;;;;;;6.03;5.00;;;17.10;99.90;;;;;;4928279;29;20985;-69
2024/04/06 01:05:36;;;;;;;5.73;5.13;;;17.10;99.90;;;;;;4925932;29;20188;-69
2024/04/06 01:08:02;;;;;;;5.73;4.30;;;17.10;99.90;;;;;;4923480;29;20192;-69
2024/04/06 01:10:28;;;;;;;6.87;4.67;;;17.00;99.90;;;;;;4923341;29;20705;-69
2024/04/06 01:12:54;;;;;;;8.80;6.00;;;17.00;99.90;;;;;;4922420;29;20188;-68
2024/04/06 01:15:20;;;;;;;6.40;4.47;;;17.00;99.90;;;;;;4926002;29;20180;-68
2024/04/06 01:17:45;;;;;;;5.83;5.23;;;17.00;99.90;;;;;;4919078;29;20440;-74
2024/04/06 01:20:12;;;;;;;8.53;5.23;;;17.00;99.90;;;;;;4922415;29;20235;-69
2024/04/06 01:22:38;;;;;;;4.53;4.03;;;16.90;99.90;;;;;;4922646;29;20737;-70
2024/04/06 01:25:04;;;;;;;5.53;4.97;;;16.90;99.90;;;;;;4924795;29;20439;-70
2024/04/06 01:27:30;;;;;;;6.10;4.43;;;16.90;99.90;;;;;;4929149;29;20179;-69
2024/04/06 01:29:56;;;;;;;6.33;5.30;;;16.80;99.90;;;;;;4923349;29;20478;-69
2024/04/06 01:32:21;;;;;;;7.03;5.00;;;16.80;99.90;;;;;;4926373;29;20447;-69
2024/04/06 01:34:47;;;;;;;9.57;4.50;;;16.80;99.90;;;;;;4921629;29;20184;-69
2024/04/06 01:37:15;;;;;;;5.70;4.80;;;16.80;99.90;;;;;;4921925;29;20184;-69
2024/04/06 01:39:41;;;;;;;6.17;4.90;;;16.70;99.90;;;;;;4921479;29;20227;-69
2024/04/06 01:42:06;;;;;;;13.13;4.43;;;16.70;99.90;;;;;;4921904;29;20847;-69
2024/04/06 01:44:32;;;;;;;8.20;5.27;;;16.70;99.90;;;;;;4924544;29;20287;-69
2024/04/06 01:46:58;;;;;;;5.87;4.20;;;16.70;99.90;;;;;;4924744;29;21711;-69
2024/04/06 01:49:24;;;;;;;5.73;4.50;;;16.60;99.90;;;;;;4925433;29;20287;-69
2024/04/06 01:51:50;;;;;;;6.53;4.33;;;16.60;99.90;;;;;;4906160;29;20203;-69
2024/04/06 01:54:15;;;;;;;5.53;4.30;;;16.50;99.90;;;;;;4925320;29;20423;-68
2024/04/06 01:56:41;;;;;;;6.57;4.27;;;16.50;99.90;;;;;;4926566;29;20648;-69
2024/04/06 01:59:08;;;;;;;5.90;4.23;;;16.50;99.90;;;;;;4925107;29;20183;-68
2024/04/06 02:01:33;;;;;;;7.93;4.30;;;16.50;99.90;;;;;;4925957;29;20913;-70
2024/04/06 02:03:59;;;;;;;9.87;4.97;;;16.50;99.90;;;;;;4916804;29;20448;-69
2024/04/06 02:06:24;;;;;;;5.47;4.30;;;16.40;99.90;;;;;;4926048;29;20274;-70
2024/04/06 02:08:50;;;;;;;7.40;4.30;;;16.40;99.90;;;;;;4924481;29;20355;-69
2024/04/06 02:11:15;;;;;;;5.53;4.30;;;16.40;99.90;;;;;;4925722;29;20734;-69
2024/04/06 02:13:41;;;;;;;7.70;4.63;;;16.40;99.90;;;;;;4926233;29;20184;-70
2024/04/06 02:16:06;;;;;;;6.03;4.30;;;16.40;99.90;;;;;;4920753;29;20199;-69
2024/04/06 02:18:32;;;;;;;12.50;4.20;;;16.30;99.90;;;;;;4926035;29;20621;-69
2024/04/06 02:20:57;;;;;;;6.57;4.40;;;16.30;99.90;;;;;;4923948;29;20208;-70
2024/04/06 02:23:23;;;;;;;5.40;4.20;;;16.30;99.90;;;;;;4924078;29;20275;-69
2024/04/06 02:25:51;;;;;;;7.50;4.50;;;16.30;99.90;;;;;;4923220;29;20296;-70
2024/04/06 02:28:17;;;;;;;5.13;3.77;;;16.20;99.90;;;;;;4925744;29;20482;-69
2024/04/06 02:30:42;;;;;;;5.20;4.00;;;16.20;99.90;;;;;;4922461;29;20463;-69
2024/04/06 02:33:08;;;;;;;6.30;4.33;;;16.20;99.90;;;;;;4907426;29;20278;-69
2024/04/06 02:35:34;;;;;;;8.33;4.33;;;16.20;99.90;;;;;;4929115;29;20279;-69
2024/04/06 02:37:59;;;;;;;6.30;4.40;;;16.10;99.90;;;;;;4925929;29;20196;-71
2024/04/06 02:40:25;;;;;;;8.23;4.30;;;16.10;99.90;;;;;;4925660;29;20188;-73
2024/04/06 02:42:51;;;;;;;6.30;4.10;;;16.10;99.90;;;;;;4911589;29;20172;-70
2024/04/06 02:45:17;;;;;;;6.43;4.10;;;16.00;99.90;;;;;;4929209;29;20176;-70
2024/04/06 02:47:43;;;;;;;6.50;4.43;;;16.00;99.90;;;;;;4926830;29;20447;-68
2024/04/06 02:50:10;;;;;;;8.97;4.70;;;16.00;99.90;;;;;;4925852;29;21000;-70
2024/04/06 02:52:36;;;;;;;4.40;3.77;;;16.00;99.90;;;;;;4928648;29;20184;-70
2024/04/06 02:55:01;;;;;;;6.00;3.80;;;15.90;99.90;;;;;;4925598;29;20498;-68
2024/04/06 02:57:27;;;;;;;5.20;3.73;;;15.90;99.90;;;;;;4927278;29;20287;-68
2024/04/06 02:59:52;;;;;;;5.30;3.63;;;15.90;99.90;;;;;;4921420;29;20189;-69
2024/04/06 03:02:19;;;;;;;5.93;3.97;;;15.80;99.90;;;;;;4928352;29;20259;-68
2024/04/06 03:04:44;;;;;;;5.43;3.70;;;15.80;99.90;;;;;;4926854;29;20438;-68
2024/04/06 03:07:11;;;;;;;4.37;3.73;;;15.80;99.90;;;;;;4928203;29;20432;-69
2024/04/06 03:09:38;;;;;;;6.10;3.63;;;15.80;99.90;;;;;;4926404;29;20207;-68
2024/04/06 03:12:04;;;;;;;4.90;3.50;;;15.80;99.90;;;;;;4923266;29;20455;-68
2024/04/06 03:14:29;;;;;;;4.83;3.27;;;15.80;99.90;;;;;;4927407;29;20922;-68
2024/04/06 03:16:55;;;;;;;5.03;3.47;;;15.80;99.90;;;;;;4923449;29;20357;-69
2024/04/06 03:19:20;;;;;;;6.40;3.10;;;15.70;99.90;;;;;;4927577;29;20199;-69
2024/04/06 03:21:46;;;;;;;3.43;2.77;;;15.70;99.90;;;;;;4925944;29;20215;-69
2024/04/06 03:24:12;;;;;;;9.13;3.90;;;15.70;99.90;;;;;;4924340;29;20180;-69
2024/04/06 03:26:37;;;;;;;6.80;3.23;;;15.70;99.90;;;;;;4925176;29;20207;-69
2024/04/06 03:29:03;;;;;;;4.43;3.50;;;15.60;99.90;;;;;;4926462;29;20226;-68
2024/04/06 03:31:29;;;;;;;5.23;3.43;;;15.60;99.90;;;;;;4925755;29;20219;-68
2024/04/06 03:33:54;;;;;;;3.97;3.30;;;15.60;99.90;;;;;;4929354;29;20471;-68
2024/04/06 03:36:20;;;;;;;5.37;3.23;;;15.60;99.90;;;;;;4925966;29;20580;-68
2024/04/06 03:38:45;;;;;;;4.37;3.33;;;15.60;99.90;;;;;;4922251;29;20214;-69
2024/04/06 03:41:11;;;;;;;5.90;3.93;;;15.60;99.90;;;;;;4921662;29;20219;-69
2024/04/06 03:43:36;;;;;;;13.33;6.70;;;15.50;99.90;;;;;;4924886;29;20216;-69
2024/04/06 03:46:02;;;;;;;5.07;3.73;;;15.50;99.90;;;;;;4925075;29;20196;-69
2024/04/06 03:48:30;;;;;;;4.60;3.90;;;15.50;99.90;;;;;;4925475;29;20215;-69
2024/04/06 03:50:58;;;;;;;6.03;3.47;;;15.50;99.90;;;;;;4924658;29;20678;-69
2024/04/06 03:53:35;;;;;;;5.93;3.57;;;15.50;99.90;;;;;;4925229;29;20903;-69
2024/04/06 03:56:01;;;;;;;6.07;3.70;;;15.50;99.90;;;;;;4924558;29;20432;-69
2024/04/06 03:58:27;;;;;;;5.83;3.47;;;15.40;99.90;;;;;;4927686;29;20956;-69
2024/04/06 04:00:53;;;;;;;6.40;3.70;;;15.40;99.90;;;;;;4923079;29;20454;-70
2024/04/06 04:03:19;;;;;;;5.90;3.57;;;15.40;99.90;;;;;;4926466;29;20353;-69
2024/04/06 04:05:45;;;;;;;4.30;3.77;;;15.40;99.90;;;;;;4926168;29;20919;-69
2024/04/06 04:08:10;;;;;;;5.53;3.40;;;15.40;99.90;;;;;;4924699;29;20419;-69
2024/04/06 04:10:36;;;;;;;4.73;3.40;;;15.30;99.90;;;;;;4924329;29;20202;-69
2024/04/06 04:13:05;;;;;;;5.20;3.80;;;15.30;99.90;;;;;;4908464;29;20819;-69
2024/04/06 04:15:31;;;;;;;5.67;3.80;;;15.30;99.90;;;;;;4926804;29;20427;-69
2024/04/06 04:17:56;;;;;;;5.30;3.50;;;15.30;99.90;;;;;;4924267;29;20443;-69
2024/04/06 04:20:22;;;;;;;5.13;3.53;;;15.30;99.90;;;;;;4926181;29;20251;-69
2024/04/06 04:22:47;;;;;;;6.13;4.07;;;15.20;99.90;;;;;;4925950;29;20203;-69
2024/04/06 04:25:14;;;;;;;8.13;3.87;;;15.20;99.90;;;;;;4924994;29;20250;-68
2024/04/06 04:27:40;;;;;;;5.50;3.63;;;15.10;99.90;;;;;;4923175;29;20680;-68
2024/04/06 04:30:06;;;;;;;4.23;3.20;;;15.10;99.90;;;;;;4925460;29;20466;-69
2024/04/06 04:32:32;;;;;;;5.60;3.60;;;15.10;99.90;;;;;;4928300;29;20203;-69
2024/04/06 04:34:57;;;;;;;5.30;3.67;;;15.00;99.90;;;;;;4927468;29;20453;-69
2024/04/06 04:37:23;;;;;;;5.23;3.93;;;15.00;99.90;;;;;;4927125;29;20179;-68
2024/04/06 04:39:48;;;;;;;4.50;4.07;;;15.00;99.90;;;;;;4925963;29;20192;-69
2024/04/06 04:42:14;;;;;;;5.77;4.10;;;15.00;99.90;;;;;;4920770;29;20210;-68
2024/04/06 04:44:39;;;;;;;6.23;4.10;;;15.00;99.90;;;;;;4922956;29;20255;-69
2024/04/06 04:47:05;;;;;;;9.13;4.00;;;14.90;99.90;;;;;;4924686;29;20192;-69
2024/04/06 04:49:30;;;;;;;8.03;4.57;;;14.90;99.90;;;;;;4927094;29;20207;-69
2024/04/06 04:51:56;;;;;;;5.80;3.87;;;14.90;99.90;;;;;;4927519;29;20282;-69
2024/04/06 04:54:22;;;;;;;6.77;4.27;;;14.80;99.90;;;;;;4926384;29;20270;-72
2024/04/06 04:56:47;;;;;;;6.10;3.57;;;14.80;99.90;;;;;;4910205;29;20188;-71
2024/04/06 04:59:13;;;;;;;5.00;3.77;;;14.80;99.90;;;;;;4923086;29;20193;-70
2024/04/06 05:01:38;;;;;;;5.13;3.70;;;14.80;99.90;;;;;;4931943;29;20604;-70
2024/04/06 05:04:04;;;;;;;6.10;3.87;;;14.70;99.90;;;;;;4925393;29;20536;-70
2024/04/06 05:06:29;;;;;;;5.00;3.30;;;14.70;99.90;;;;;;4931104;29;20210;-70
2024/04/06 05:08:57;;;;;;;6.60;4.00;;;14.80;99.90;;;;;;4926932;29;20234;-68
2024/04/06 05:11:24;;;;;;;6.40;4.23;;;14.70;99.90;;;;;;4926246;29;20274;-69
2024/04/06 05:13:49;;;;;;;4.30;3.50;;;14.80;99.90;;;;;;4924629;29;20439;-69
2024/04/06 05:16:15;;;;;;;7.50;4.40;;;14.70;99.90;;;;;;4926305;29;20427;-69
2024/04/06 05:18:41;;;;;;;5.67;3.50;;;14.70;99.90;;;;;;4925197;29;20195;-69
2024/04/06 05:21:06;;;;;;;6.43;3.20;;;14.70;99.90;;;;;;4925319;29;20483;-69
2024/04/06 05:23:32;;;;;;;5.33;4.03;;;14.80;99.90;;;;;;4924427;29;20201;-69
2024/04/06 05:25:58;;;;;;;4.93;3.73;;;14.80;99.90;;;;;;4925144;29;20195;-69
2024/04/06 05:28:27;;;;;;;6.30;4.17;;;14.70;99.90;;;;;;4923851;29;20263;-69
2024/04/06 05:30:53;;;;;;;4.60;3.63;;;14.80;99.90;;;;;;4924905;29;20550;-69
2024/04/06 05:33:20;;;;;;;5.93;4.60;;;14.80;99.90;;;;;;4923169;29;20435;-69
2024/04/06 05:35:47;;;;;;;10.47;4.07;;;14.70;99.90;;;;;;4925254;29;20699;-69
2024/04/06 05:38:14;;;;;;;7.47;4.27;;;14.80;99.90;;;;;;4906864;29;20435;-69
2024/04/06 05:40:41;;;;;;;5.63;3.90;;;14.80;99.90;;;;;;4922872;29;20506;-68
2024/04/06 05:43:09;;;;;;;6.80;4.57;;;14.80;99.90;;;;;;4921454;29;20443;-68
2024/04/06 05:45:36;;;;;;;5.63;3.80;;;14.80;99.90;;;;;;4925401;29;20934;-69
2024/04/06 05:48:05;;;;;;;4.87;4.17;;;14.80;99.90;;;;;;4923269;29;20428;-69
2024/04/06 05:50:35;;;;;;;5.70;3.80;;;14.90;99.90;;;;;;4908832;29;20487;-68
2024/04/06 05:53:01;;;;;;;5.50;4.10;;;14.80;99.90;;;;;;4922901;29;20774;-69
2024/04/06 05:55:28;;;;;;;5.00;4.20;;;14.90;99.90;;;;;;4922804;29;20430;-69
2024/04/06 05:57:54;;;;;;;6.93;3.97;;;14.90;99.90;;;;;;4923472;29;20440;-69
2024/04/06 06:00:20;;;;;;;5.30;4.40;;;14.90;99.90;;;;;;4923998;29;20475;-68
2024/04/06 06:02:46;;;;;;;5.00;4.10;;;14.90;99.90;;;;;;4922019;29;20188;-68
2024/04/06 06:05:12;;;;;;;5.77;3.90;;;14.90;99.90;;;;;;4926761;29;20847;-68
2024/04/06 06:07:39;;;;;;;5.83;4.30;;;14.90;99.90;;;;;;4928400;29;20482;-68
2024/04/06 06:10:05;;;;;;;5.30;3.93;;;15.00;99.90;;;;;;4926327;29;21013;-69
2024/04/06 06:12:31;;;;;;;9.73;4.37;;;15.00;99.90;;;;;;4929259;29;20457;-69
2024/04/06 06:14:57;;;;;;;5.43;3.97;;;15.10;99.90;;;;;;4925998;29;20805;-68
2024/04/06 06:17:22;;;;;;;6.03;3.90;;;15.10;99.90;;;;;;4923871;29;20180;-69
2024/04/06 06:19:48;;;;;;;4.80;3.60;;;15.20;99.90;;;;;;4927334;29;20270;-69
2024/04/06 06:22:13;;;;;;;5.90;4.00;;;15.20;99.90;;;;;;4924944;29;20234;-69
2024/04/06 06:24:41;;;;;;;4.63;3.70;;;15.30;99.90;;;;;;4926249;29;20215;-69
2024/04/06 06:27:07;;;;;;;5.80;3.83;;;15.40;99.90;;;;;;4922663;29;20184;-69
2024/04/06 06:29:33;;;;;;;5.37;4.30;;;15.40;99.90;;;;;;4911697;29;20522;-69
2024/04/06 06:31:59;;;;;;;8.93;4.50;;;15.50;99.90;;;;;;4925549;29;20467;-69
2024/04/06 06:34:24;;;;;;;5.67;4.43;;;15.50;99.90;;;;;;4921789;29;20427;-69
2024/04/06 06:36:50;;;;;;;5.00;3.97;;;15.60;99.90;;;;;;4928915;29;20190;-69
2024/04/06 06:39:15;;;;;;;6.90;4.90;;;15.60;99.90;;;;;;4926639;29;20187;-69
2024/04/06 06:41:42;;;;;;;11.67;5.70;;;15.70;99.90;;;;;;4926691;29;20223;-69
2024/04/06 06:44:07;;;;;;;7.17;4.97;;;15.80;99.90;;;;;;4927807;29;20241;-69
2024/04/06 06:46:33;;;;;;;6.30;4.63;;;15.80;99.90;;;;;;4928056;29;20798;-69
2024/04/06 06:48:59;;;;;;;12.80;4.13;;;15.90;99.90;;;;;;4927638;29;20310;-69
2024/04/06 06:51:25;;;;;;;8.00;4.90;;;15.90;99.90;;;;;;4927443;29;20282;-69
2024/04/06 06:53:51;;;;;;;5.90;3.63;;;16.00;99.90;;;;;;4927087;29;20203;-69
2024/04/06 06:56:17;;;;;;;6.13;3.87;;;16.00;99.90;;;;;;4926976;29;20523;-69
2024/04/06 06:58:43;;;;;;;5.67;3.70;;;16.10;99.90;;;;;;4928611;29;20514;-69
2024/04/06 07:01:08;;;;;;;6.77;4.10;;;16.10;99.90;;;;;;4926808;29;20219;-69
2024/04/06 07:03:34;;;;;;;8.57;4.20;;;16.10;99.90;;;;;;4927927;29;20190;-69
2024/04/06 07:05:59;;;;;;;6.20;3.80;;;16.20;99.90;;;;;;4926400;29;20200;-69
2024/04/06 07:08:25;;;;;;;7.70;3.90;;;16.30;99.90;;;;;;4929149;29;20206;-69
2024/04/06 07:10:50;;;;;;;5.93;3.90;;;16.30;99.90;;;;;;4927103;29;20210;-69
2024/04/06 07:13:16;;;;;;;4.80;3.80;;;16.30;99.90;;;;;;4909915;29;20656;-71
2024/04/06 07:15:41;;;;;;;4.70;3.50;;;16.40;99.90;;;;;;4928682;29;20688;-70
2024/04/06 07:18:07;;;;;;;8.10;3.53;;;16.50;99.90;;;;;;4928483;29;20553;-68
2024/04/06 07:20:32;;;;;;;10.27;4.07;;;16.50;99.90;;;;;;4927657;29;20226;-69
2024/04/06 07:22:58;;;;;;;4.93;3.70;;;16.60;99.90;;;;;;4923337;29;20275;-69
2024/04/06 07:25:23;;;;;;;15.33;12.23;;;16.70;99.90;;;;;;4927215;29;20187;-69
2024/04/06 07:27:49;;;;;;;6.73;3.90;;;16.80;99.90;;;;;;4925676;29;20267;-69
2024/04/06 07:30:15;;;;;;;9.20;6.07;;;16.80;99.90;;;;;;4928651;29;21815;-70
2024/04/06 07:32:40;;;;;;;8.33;3.00;;;16.90;99.90;;;;;;4927908;29;20717;-69
2024/04/06 07:35:09;;;;;;;6.27;4.03;;;16.90;99.90;;;;;;4927709;29;20188;-69
2024/04/06 07:37:35;;;;;;;5.00;3.20;;;17.00;99.90;;;;;;4924754;29;20268;-69
2024/04/06 07:40:02;;;;;;;4.40;2.87;;;17.10;99.90;;;;;;4928206;29;20875;-69
2024/04/06 07:42:28;;;;;;;7.80;4.73;;;17.10;99.90;;;;;;4926064;29;20195;-69
2024/04/06 07:44:53;;;;;;;8.90;8.00;;;17.10;99.90;;;;;;4926150;29;20438;-69
2024/04/06 07:47:19;;;;;;;5.63;3.47;;;17.20;99.90;;;;;;4925426;29;20251;-69
2024/04/06 07:49:45;;;;;;;5.40;3.17;;;17.20;99.90;;;;;;4927869;29;20267;-70
2024/04/06 07:52:10;;;;;;;3.97;3.43;;;17.20;99.90;;;;;;4927243;29;20200;-68
2024/04/06 07:54:36;;;;;;;5.00;3.80;;;17.30;99.90;;;;;;4925926;29;20212;-68
2024/04/06 07:57:03;;;;;;;6.43;5.13;;;17.30;99.90;;;;;;4925271;29;20267;-69
2024/04/06 07:59:29;;;;;;;10.33;3.17;;;17.40;99.90;;;;;;4926226;29;20188;-69
2024/04/06 08:01:54;;;;;;;4.50;2.73;;;17.40;99.90;;;;;;4924743;29;20740;-69
2024/04/06 08:04:20;;;;;;;7.47;4.67;;;17.50;99.90;;;;;;4924849;29;20459;-69
2024/04/06 08:06:45;;;;;;;4.80;2.80;;;17.50;99.90;;;;;;4926612;29;20195;-68
2024/04/06 08:09:11;;;;;;;5.33;3.93;;;17.60;99.90;;;;;;4924919;29;20208;-69
2024/04/06 08:11:37;;;;;;;9.30;4.83;;;17.60;99.90;;;;;;4925889;29;20196;-68
2024/04/06 08:14:02;;;;;;;7.13;5.87;;;17.70;99.90;;;;;;4926037;29;20196;-69
2024/04/06 08:16:28;;;;;;;9.23;7.57;;;17.70;99.90;;;;;;4927409;29;20735;-69
2024/04/06 08:18:54;;;;;;;3.87;3.30;;;17.70;99.90;;;;;;4924353;29;20621;-69
2024/04/06 08:21:19;;;;;;;3.30;2.60;;;17.80;99.90;;;;;;4924151;29;20538;-70
2024/04/06 08:23:45;;;;;;;4.90;2.80;;;17.90;99.90;;;;;;4905577;29;20219;-70
2024/04/06 08:26:10;;;;;;;5.57;3.17;;;17.90;99.90;;;;;;4924382;29;20562;-69
2024/04/06 08:28:36;;;;;;;7.87;3.50;;;18.00;99.90;;;;;;4925203;29;20235;-69
2024/04/06 08:31:02;;;;;;;3.40;2.80;;;18.00;99.90;;;;;;4926598;29;20207;-69
2024/04/06 08:33:29;;;;;;;6.60;5.03;;;18.10;99.90;;;;;;4925700;29;20176;-69
2024/04/06 08:35:59;;;;;;;6.93;3.10;;;18.20;99.90;;;;;;4924349;29;20965;-70
2024/04/06 08:38:24;;;;;;;3.13;2.60;;;18.20;99.90;;;;;;4924439;29;20487;-69
2024/04/06 08:40:51;;;;;;;6.03;3.90;;;18.30;99.90;;;;;;4925512;29;20474;-69
2024/04/06 08:43:18;;;;;;;3.07;2.63;;;18.30;99.90;;;;;;4921818;29;20342;-69
2024/04/06 08:45:44;;;;;;;6.03;2.30;;;18.40;99.90;;;;;;4924972;29;20441;-69
2024/04/06 08:48:12;;;;;;;4.13;2.30;;;18.40;99.90;;;;;;4924176;29;20787;-69
2024/04/06 08:50:40;;;;;;;3.33;2.43;;;18.50;99.90;;;;;;4926634;29;20451;-69
2024/04/06 08:53:06;;;;;;;3.87;2.70;;;18.60;99.90;;;;;;4923340;29;20590;-70
2024/04/06 08:55:32;;;;;;;4.03;2.43;;;18.70;99.90;;;;;;4924541;29;20428;-69
2024/04/06 08:57:59;;;;;;;3.83;2.70;;;18.80;99.90;;;;;;4923872;29;20454;-70
2024/04/06 09:00:29;;;;;;;7.83;2.87;;;18.80;99.90;;;;;;4924193;29;20846;-70
2024/04/06 09:02:55;;;;;;;4.50;2.77;;;18.80;99.90;;;;;;4924573;29;20443;-69
2024/04/06 09:05:20;;;;;;;5.13;2.80;;;18.90;99.90;;;;;;4925071;29;20420;-70
2024/04/06 09:07:47;;;;;;;3.93;3.20;;;19.00;99.90;;;;;;4908514;29;20569;-70
2024/04/06 09:10:13;;;;;;;4.30;2.90;;;19.00;99.90;;;;;;4928497;29;20611;-70
2024/04/06 09:12:39;;;;;;;4.00;2.87;;;19.10;99.90;;;;;;4925125;29;20448;-70
2024/04/06 09:15:06;;;;;;;3.53;2.83;;;19.20;99.90;;;;;;4926205;29;20203;-70
2024/04/06 09:17:32;;;;;;;4.30;2.70;;;19.30;99.90;;;;;;4925913;29;20435;-70
2024/04/06 09:19:58;;;;;;;3.03;2.63;;;19.40;99.90;;;;;;4926574;29;20419;-70
2024/04/06 09:22:23;;;;;;;4.40;2.97;;;19.60;99.90;;;;;;4927612;29;20629;-70
2024/04/06 09:24:54;;;;;;;4.80;2.60;;;19.60;99.90;;;;;;4924536;29;20251;-69
2024/04/06 09:27:20;;;;;;;4.10;2.57;;;19.80;99.90;;;;;;4926712;29;20179;-70
2024/04/06 09:29:48;;;;;;;3.67;2.30;;;19.90;99.90;;;;;;4923358;29;20518;-69
2024/04/06 09:32:18;;;;;;;4.03;2.90;;;20.10;99.90;;;;;;4923885;29;20211;-69
2024/04/06 09:34:53;;;;;;;6.70;3.20;;;20.20;99.90;;;;;;4925716;29;20471;-69
2024/04/06 09:37:32;;;;;;;3.27;2.57;;;20.30;99.90;;;;;;4927257;29;20445;-69
2024/04/06 09:39:59;;;;;;;4.50;2.87;;;20.40;99.90;;;;;;4924463;29;20515;-69
2024/04/06 09:42:25;;;;;;;5.40;2.77;;;20.50;99.90;;;;;;4924140;29;20443;-69
2024/04/06 09:44:53;;;;;;;3.40;2.43;;;20.60;99.90;;;;;;4926498;29;20423;-69
2024/04/06 09:47:23;;;;;;;3.60;2.50;;;20.70;99.90;;;;;;4927058;29;20423;-69
2024/04/06 09:49:49;;;;;;;3.20;2.53;;;20.90;99.90;;;;;;4927217;29;20471;-70
2024/04/06 09:52:20;;;;;;;5.00;3.30;;;20.90;99.90;;;;;;4927966;29;20443;-70
2024/04/06 09:54:47;;;;;;;3.50;2.70;;;21.00;99.90;;;;;;4926084;29;20483;-70
2024/04/06 09:57:14;;;;;;;3.20;2.20;;;21.00;99.90;;;;;;4926805;29;20925;-69
2024/04/06 09:59:40;;;;;;;3.93;2.70;;;21.20;99.90;;;;;;4926138;29;20439;-70
2024/04/06 10:02:06;;;;;;;4.40;2.50;;;21.30;99.90;;;;;;4927218;29;20793;-70
2024/04/06 10:04:38;;;;;;;4.33;2.40;;;21.60;99.90;;;;;;4928626;29;20475;-69
2024/04/06 10:07:05;;;;;;;3.83;2.57;;;21.70;99.90;;;;;;4927890;29;20212;-69
2024/04/06 10:09:32;;;;;;;3.60;2.53;;;21.90;99.90;;;;;;4926843;29;20528;-69
2024/04/06 10:11:59;;;;;;;8.70;3.00;;;22.00;99.90;;;;;;4930867;29;20498;-67
2024/04/06 10:14:26;;;;;;;4.20;2.23;;;22.10;99.90;;;;;;4920935;29;20822;-67
2024/04/06 10:17:04;;;;;;;3.90;2.67;;;22.20;99.90;;;;;;4927625;29;20515;-68
2024/04/06 10:19:30;;;;;;;3.40;2.30;;;22.30;99.90;;;;;;4923422;29;20842;-69
2024/04/06 10:22:07;;;;;;;3.10;2.60;;;22.50;99.90;;;;;;4925220;29;20498;-68
2024/04/06 10:24:36;;;;;;;6.60;3.10;;;22.60;99.90;;;;;;4911052;29;20199;-68
2024/04/06 10:27:03;;;;;;;3.80;2.80;;;22.70;99.10;;;;;;4929588;29;20435;-68
2024/04/06 10:29:29;;;;;;;5.13;2.50;;;22.80;98.30;;;;;;4928117;29;20469;-69
2024/04/06 10:31:55;;;;;;;6.20;2.80;;;22.90;97.00;;;;;;4909586;29;20501;-67
2024/04/06 10:34:21;;;;;;;3.80;2.70;;;23.00;96.90;;;;;;4927326;29;20475;-67
2024/04/06 10:36:47;;;;;;;4.30;2.50;;;23.10;95.80;;;;;;4925942;29;20191;-70
2024/04/06 10:39:14;;;;;;;2.70;2.33;;;23.30;95.80;;;;;;4920903;29;20433;-70
2024/04/06 10:41:44;;;;;;;3.47;2.43;;;23.40;95.00;;;;;;4925370;29;20443;-70
2024/04/06 10:44:11;;;;;;;4.30;2.67;;;23.60;93.70;;;;;;4927277;29;20435;-70
2024/04/06 10:46:38;;;;;;;3.10;2.40;;;23.80;91.50;;;;;;4925565;29;20440;-69
2024/04/06 10:49:11;;;;;;;6.00;2.70;;;24.00;90.60;;;;;;4925525;29;20463;-70
2024/04/06 10:51:37;;;;;;;3.03;2.30;;;24.10;87.10;;;;;;4926903;29;20444;-70
2024/04/06 10:54:03;;;;;;;3.30;2.80;;;24.30;85.50;;;;;;4923350;29;20530;-70
2024/04/06 10:56:28;;;;;;;3.20;2.47;;;24.40;84.10;;;;;;4924971;29;20423;-70
2024/04/06 10:58:54;;;;;;;4.47;2.30;;;24.50;83.30;;;;;;4925048;29;20424;-70
2024/04/06 11:01:22;;;;;;;5.67;2.40;;;24.70;78.30;;;;;;4923706;29;20208;-70
2024/04/06 11:03:48;;;;;;;2.67;2.40;;;24.80;75.50;;;;;;4925698;29;20658;-70
2024/04/06 11:06:14;;;;;;;3.93;2.60;;;25.00;71.40;;;;;;4924170;29;20458;-69
2024/04/06 11:08:40;;;;;;;3.87;2.60;;;25.30;69.60;;;;;;4924897;29;20728;-69
2024/04/06 11:11:09;;;;;;;5.67;5.13;;;25.60;68.40;;;;;;4923691;29;20504;-69
2024/04/06 11:13:41;;;;;;;4.23;2.90;;;25.80;62.90;;;;;;4923400;29;20544;-69
2024/04/06 11:16:09;;;;;;;5.03;2.30;;;25.90;61.20;;;;;;4907050;29;20432;-69
2024/04/06 11:18:42;;;;;;;2.77;2.50;;;26.00;60.20;;;;;;4922035;29;20988;-69
2024/04/06 11:21:12;;;;;;;2.93;2.47;;;26.10;60.70;;;;;;4921472;29;20456;-69
2024/04/06 11:23:38;;;;;;;3.80;3.00;;;26.20;61.50;;;;;;4923689;29;20448;-69
2024/04/06 11:26:04;;;;;;;2.80;2.43;;;26.30;61.30;;;;;;4925352;29;20520;-69
2024/04/06 11:28:30;;;;;;;3.47;2.40;;;26.50;60.80;;;;;;4925222;29;20180;-70
2024/04/06 11:30:57;;;;;;;4.13;2.30;;;26.50;59.60;;;;;;4926201;29;20495;-69
2024/04/06 11:33:23;;;;;;;4.97;2.77;;;26.40;59.00;;;;;;4924590;29;20227;-69
2024/04/06 11:35:48;;;;;;;3.00;2.43;;;26.50;54.50;;;;;;4903702;29;21180;-69
2024/04/06 11:38:14;;;;;;;3.40;2.87;;;26.40;53.60;;;;;;4923853;29;20267;-69
2024/04/06 11:40:46;;;;;;;2.90;2.50;;;26.50;53.60;;;;;;4921084;29;20208;-69
2024/04/06 11:43:15;;;;;;;3.30;2.70;;;26.50;52.80;;;;;;4923075;29;20234;-71
2024/04/06 11:45:41;;;;;;;2.50;2.30;;;26.60;52.50;;;;;;4926213;29;20522;-70
2024/04/06 11:48:07;;;;;;;3.57;2.67;;;26.60;50.60;;;;;;4925078;29;20518;-69
2024/04/06 11:50:33;;;;;;;5.23;2.60;;;26.60;50.70;;;;;;4924350;29;20724;-71
2024/04/06 11:52:59;;;;;;;3.20;2.50;;;26.60;49.90;;;;;;4924561;29;20431;-69
2024/04/06 11:55:24;;;;;;;3.83;2.53;;;26.70;50.60;;;;;;4926490;29;20211;-70
2024/04/06 11:57:50;;;;;;;5.30;2.50;;;26.90;49.80;;;;;;4927868;29;21910;-69
2024/04/06 12:00:16;;;;;;;2.63;2.20;;;27.10;49.90;;;;;;4925461;29;20203;-69
2024/04/06 12:02:41;;;;;;;4.30;2.50;;;27.50;49.80;;;;;;4918196;29;20196;-68
2024/04/06 12:05:07;;;;;;;3.43;2.20;;;27.80;50.40;;;;;;4921145;29;20454;-68
2024/04/06 12:07:34;;;;;;;2.50;2.20;;;28.70;49.50;;;;;;4925234;29;20199;-67
2024/04/06 12:10:00;;;;;;;2.83;2.20;;;30.10;49.40;;;;;;4924209;29;20471;-68
2024/04/06 12:12:25;;;;;;;3.20;2.80;;;30.90;47.00;;;;;;4927135;29;20519;-67
2024/04/06 12:14:51;;;;;;;3.80;2.50;;;31.60;47.30;;;;;;4921786;29;20184;-68
2024/04/06 12:17:26;;;;;;;3.00;2.40;;;32.30;45.00;;;;;;4924813;29;20184;-68
2024/04/06 12:19:52;;;;;;;2.60;2.40;;;32.60;44.50;;;;;;4923729;29;20184;-68
2024/04/06 12:22:19;;;;;;;3.43;2.90;;;33.20;44.30;;;;;;4923393;29;20482;-68
2024/04/06 12:24:44;;;;;;;2.60;2.30;;;33.60;41.40;;;;;;4922718;29;20937;-68
2024/04/06 12:27:13;;;;;;;3.23;2.17;;;33.50;38.90;;;;;;4922547;29;20470;-68
2024/04/06 12:29:38;;;;;;;3.43;2.40;;;33.70;38.30;;;;;;4907784;29;20207;-67
2024/04/06 12:32:04;;;;;;;3.10;2.43;;;34.10;36.70;;;;;;4921366;29;20443;-68
2024/04/06 12:34:30;;;;;;;4.40;2.50;;;34.40;35.70;;;;;;4906151;29;20267;-69
2024/04/06 12:37:00;;;;;;;3.33;2.70;;;34.60;35.10;;;;;;4923219;29;20493;-67
2024/04/06 12:39:26;;;;;;;2.70;2.30;;;34.60;35.00;;;;;;4915743;29;20310;-68
2024/04/06 12:41:52;;;;;;;3.07;2.40;;;34.80;34.40;;;;;;4919884;29;20464;-69